Whale Point, California Weather observations

Data are for observation ending at time listed.
 Day   Time    Ave.   Ave.  Ave.  Vector   Max.   Stn.    Total    Solar   Ave.  
  of    of     Air    Rel.  Wind   Wind    Wind   Baro.  Precip.   Rad.    Soil  
Year   Day     Temp.  Hum.  Speed  Dir.    Gust   Pres.                    Temp. 
2017   (PST)    F      %     mph   deg.    mph     mb.     in.     W/m2     F   
------------------------------------------------------------------------------
  58    8:40   48.3    67    1.7     8      5.0   992.2    0.00     349    50.1
  58    8:50   49.7    66    0.4   215      2.6   992.6    0.00     427    50.1
  58    9:00   50.6    65    2.7   196      4.8   992.6    0.00     453    50.1
  58    9:10   49.6    67    3.2   210      5.1   992.2    0.00     488    50.0
  58    9:20   49.0    68    3.9   222      6.1   992.2    0.00     524    50.0
  58    9:30   49.1    68    3.6   213      6.0   992.2    0.00     556    50.0
  58    9:40   49.7    68    3.2   200      6.4   992.2    0.00     586    50.0
  58    9:50   49.7    67    2.9   216      5.8   992.6    0.00     622    49.9
  58   10:00   50.4    68    3.7   199      5.8   992.6    0.00     665    49.9
  58   10:10   51.2    67    3.3   195      6.1   992.6    0.00     694    49.9
  58   10:20   50.6    68    4.0   216      6.6   992.6    0.00     732    49.9
  58   10:30   50.2    68    4.8   223      7.7   992.6    0.00     739    49.9
  58   10:40   50.2    67    4.1   211      7.3   992.9    0.00     503    49.9
  58   10:50   50.9    65    1.9   252      6.2   992.9    0.00     472    50.0
  58   11:00   51.2    63    1.7   279      5.2   992.9    0.00     565    50.0
  58   11:10   51.6    63    1.8   251      6.6   992.9    0.00     528    50.0
  58   11:20   52.2    64    2.8   254      7.5   992.9    0.00     782    50.1
  58   11:30   52.2    64    2.4   301      6.1   992.9    0.00     704    50.2
  58   11:40   51.1    64    3.6   316      7.8   992.9    0.00     707    50.2
  58   11:50   50.7    65    5.2   307     11.7   992.9    0.00     841    50.3
  58   12:00   51.4    66    3.6   304     11.2   992.6    0.00     848    50.4
  58   12:10   51.2    65    4.8   302      8.6   992.6    0.00     751    50.5
  58   12:20   50.3    69    6.6   297     12.9   992.6    0.00     791    50.6
  58   12:30   50.6    68    5.6   268     13.4   992.2    0.00     820    50.8
  58   12:40   50.6    68    6.1   281     13.7   992.2    0.00     816    50.9
  58   12:50   50.9    68    6.4   167     16.6   991.9    0.00     817    51.0
  58   13:00   51.5    68    6.6   178     17.3   991.9    0.00     806    51.1
  58   13:10   51.3    65    7.5   182     18.6   991.5    0.00     793    51.3
  58   13:20   51.2    63    4.4   182     16.4   991.5    0.00     783    51.4
  58   13:30   51.7    65    6.1   184     14.8   991.5    0.00     770    51.6
  58   13:40   51.7    64    5.9   171     19.0   991.5    0.00     756    51.7
  58   13:50   51.5    61    5.8   172     16.8   991.5    0.00     740    51.9
  58   14:00   51.1    61    5.7   127     17.5   991.5    0.00     724    52.1
  58   14:10   51.7    60    6.0   195     23.9   991.5    0.00     705    52.3
  58   14:20   51.7    60    6.9   168     22.7   991.5    0.00     685    52.5
  58   14:30   52.0    60    6.5   178     16.7   991.5    0.00     662    52.6
  58   14:40   52.0    61    5.9   154     20.8   991.5    0.00     637    52.8
  58   14:50   52.2    60    4.9   179     16.2   991.5    0.00     611    53.0
  58   15:00   52.4    58    4.9   175     12.4   991.5    0.00     587    53.2
  58   15:10   52.4    58    4.6   172     13.0   991.5    0.00     565    53.4
  58   15:20   51.3    59    4.8   188     14.0   991.5    0.00     462    53.6
  58   15:30   51.1    60    6.0   173     15.9   991.5    0.00     417    53.8
  58   15:40   51.3    61    6.0   171     17.7   991.5    0.00     499    54.0
  58   15:50   51.8    60    7.0   184     18.8   991.5    0.00     537    54.1
  58   16:00   52.4    61    5.7   187     17.7   991.5    0.00     510    54.3
  58   16:10   52.9    59    6.6   171     20.0   991.5    0.00     446    54.5
  58   16:20   52.4    62    5.4   170     13.4   991.5    0.00     385    54.7
  58   16:30   52.3    59    6.2   207     18.0   991.5    0.00     375    54.8
  58   16:40   52.2    59    5.5   189     14.2   991.5    0.00     341    55.0
  58   16:50   52.3    59    6.0   238     13.7   991.5    0.00     292    55.1
  58   17:00   51.9    60    6.3   199     15.9   991.5    0.00     227    55.3
  58   17:10   52.2    60    4.7   222     12.2   991.5    0.00     203    55.4
  58   17:20   51.6    59    6.6   209     14.0   991.5    0.00     166    55.5
  58   17:30   50.9    64    4.3   126     12.9   991.5    0.00     110    55.7
  58   17:40   49.8    66    8.5    16     17.4   991.5    0.00      70    55.8
  58   17:50   49.2    67    9.9    11     19.8   991.5    0.00      40    55.9
  58   18:00   48.9    68    8.3   349     13.2   991.5    0.00      12    55.9
  58   18:10   48.5    70    6.3   324     13.2   991.5    0.00       2    56.0
  58   18:20   48.0    72    2.2   345      5.6   991.5    0.00       1    56.0
  58   18:30   47.7    72    2.3    20      5.8   991.5    0.00       0    56.1
  58   18:40   47.8    72    4.9    40      6.7   991.9    0.00       0    56.1
  58   18:50   47.2    73    4.5    56      5.9   991.9    0.00       0    56.1
  58   19:00   47.2    73    4.1    44      7.5   991.9    0.00       0    56.1
  58   19:10   46.7    74    6.4    23      9.1   991.9    0.00       0    56.1
  58   19:20   46.4    73    5.3    20     10.4   991.9    0.00       0    56.1
  58   19:30   46.6    69    4.7     1      9.6   991.9    0.00       0    56.0
  58   19:40   46.9    64    6.3     1      9.7   992.2    0.00       0    56.0
  58   19:50   46.6    63    5.1   344      9.9   992.2    0.00       0    55.9
  58   20:00   46.8    60    5.8   356     11.0   992.2    0.00       0    55.9
  58   20:10   47.0    58    5.2   360     12.9   992.2    0.00       0    55.9
  58   20:20   47.3    56    5.6   355     13.4   992.6    0.00       0    55.8
  58   20:30   47.0    56    5.5     6     12.2   992.6    0.00       0    55.7
  58   20:40   47.0    55    5.2    19     16.3   992.6    0.00       0    55.6
  58   20:50   47.2    54    7.9    20     18.3   992.6    0.00       0    55.5
  58   21:00   47.2    54    7.7     3     19.1   992.6    0.00       0    55.4
  58   21:10   46.8    55    6.2   356     12.3   992.9    0.00       0    55.4
  58   21:20   47.1    53    6.2   354     12.2   992.9    0.00       0    55.3
  58   21:30   46.6    55    5.9   358     15.7   992.9    0.00       0    55.2
  58   21:40   46.6    55    5.7   354     12.2   993.2    0.00       0    55.1
  58   21:50   46.5    55    6.2     3     13.2   993.2    0.00       0    55.0
  58   22:00   46.6    55    5.6   350     10.8   993.6    0.00       0    54.8
  58   22:10   46.5    56    4.8    19     12.1   993.6    0.00       0    54.7
  58   22:20   46.5    56    5.4    10     13.9   993.6    0.00       0    54.6
  58   22:30   46.4    56    5.7    14     14.0   993.6    0.00       0    54.5
  58   22:40   46.6    55    6.3     3     12.9   993.6    0.00       0    54.4
  58   22:50   46.6    55    5.6     1     11.1   993.6    0.00       0    54.3
  58   23:00   46.4    56    4.6    17     15.6   993.6    0.00       0    54.2
  58   23:10   46.2    56    4.8    11     12.5   993.9    0.00       0    54.1
  58   23:20   46.2    56    6.2     8     11.8   993.9    0.00       0    54.0
  58   23:30   46.2    56    5.6    36     13.2   993.9    0.00       0    53.9
  58   23:40   45.9    57    6.0    21     10.3   993.9    0.00       0    53.8
  58   23:50   45.7    57    6.7    15     15.4   994.2    0.00       0    53.7
  59    0:00   46.2    55    5.3    37     14.2   994.2    0.00       0    53.6
  59    0:10   46.0    56    6.5    17     14.0   994.2    0.00       0    53.5
  59    0:20   45.7    57    6.7    15     15.3   994.2    0.00       0    53.4
  59    0:30   45.4    57    7.1    14     13.4   994.2    0.00       0    53.3
  59    0:40   45.5    56    6.7    24     14.0   994.6    0.00       0    53.2
  59    0:50   45.5    56    6.2    23     14.5   994.6    0.00       0    53.1
  59    1:00   45.6    55    6.3    32     11.6   994.6    0.00       0    53.0
  59    1:10   45.6    54    7.5    26     12.4   994.9    0.00       0    52.9
  59    1:20   45.2    56    5.5    18      9.7   994.9    0.00       0    52.8
  59    1:30   45.4    54    7.8    11     13.4   994.9    0.00       0    52.7
  59    1:40   45.4    52    7.9    21     13.7   994.9    0.00       0    52.6
  59    1:50   45.4    52    7.3    28     11.7   994.9    0.00       0    52.6
  59    2:00   45.4    51    7.5     9     11.7   994.9    0.00       0    52.4
  59    2:10   45.1    52    6.5    13     12.8   994.9    0.00       0    52.4
  59    2:20   46.0    49    8.4    27     15.8   994.9    0.00       0    52.3
  59    2:30   45.4    51    7.2    14     13.0   994.9    0.00       0    52.2
  59    2:40   44.6    53    6.5    14     12.7   994.9    0.00       0    52.1
  59    2:50   44.6    54    6.2     1     13.2   994.9    0.00       0    52.0
  59    3:00   44.9    52    7.6    13     14.6   994.9    0.00       0    51.9
  59    3:10   45.1    52    7.8    19     14.9   994.9    0.00       0    51.8
  59    3:20   44.9    53    3.6    13      8.6   994.9    0.00       0    51.7
  59    3:30   44.2    55    6.1     6     11.6   995.3    0.00       0    51.7
  59    3:40   44.4    56    7.5    13     13.3   995.3    0.00       0    51.6
  59    3:50   44.8    54    5.7     2     12.3   995.3    0.00       0    51.5
  59    4:00   44.9    55    7.6     2     16.4   995.3    0.00       0    51.4
  59    4:10   44.8    54    7.5     5     13.7   995.6    0.00       0    51.3
  59    4:20   44.3    56    7.0    16     11.6   995.6    0.00       0    51.2
  59    4:30   44.5    55    7.9     9     15.5   995.6    0.00       0    51.2
  59    4:40   45.1    53    7.0    11     15.6   995.6    0.00       0    51.1
  59    4:50   44.8    54    7.6     1     16.7   995.9    0.00       0    51.0
  59    5:00   44.3    56    5.7     8     11.2   995.9    0.00       0    50.9
  59    5:10   44.1    56    8.2     7     12.9   995.9    0.00       0    50.8
  59    5:20   44.7    54    7.5     8     19.5   996.3    0.00       0    50.8
  59    5:30   45.5    50    7.1     7     13.7   996.3    0.00       0    50.7
  59    5:40   45.5    50    7.3    13     13.3   996.6    0.00       0    50.6
  59    5:50   45.6    49    6.0    13     13.1   996.6    0.00       0    50.5
  59    6:00   44.7    50    3.5    27      7.4   996.6    0.00       0    50.5
  59    6:10   44.7    50    7.1    12     15.1   997.0    0.00       0    50.4
  59    6:20   45.2    49    4.1     1     10.2   997.0    0.00       0    50.3
  59    6:30   45.2    50    7.3    17     14.2   997.3    0.00       1    50.3
  59    6:40   45.2    50    7.8    25     13.7   997.3    0.00       4    50.2
  59    6:50   45.0    51    6.6     1     13.3   997.6    0.00       7    50.1
  59    7:00   44.7    52    3.6     3     10.3   998.0    0.00      11    50.1
  59    7:10   44.3    53    6.1   360     10.7   998.0    0.00      14    50.0
  59    7:20   44.5    52    6.6     4     12.3   998.3    0.00      17    49.9
  59    7:30   44.8    51    8.5     3     14.5   998.3    0.00      19    49.9
  59    7:40   45.5    49    5.4   359     10.2   998.6    0.00      21    49.8
  59    7:50   45.1    50    6.7    27     14.4   999.0    0.00      23    49.7
  59    8:00   45.7    48    2.1   339      9.9   999.0    0.00      24    49.7
  59    8:10   46.1    47    5.8    11     13.1   999.0    0.00      26    49.6
  59    8:20   46.6    45    4.5    10      9.5   999.3    0.00      28    49.5
  59    8:30   47.6    44    1.9   353      6.1   999.3    0.00     315    49.5

Return to Whale Point graphs page.


Western Regional Climate Center,wrcc@dri.edu